Time;durP1;ratioP1;P1;durP2;ratioP2;P2;SDS_P1;SDS_P2;PMS_P1;PMS_P2;Temp;Humidity;BMP_temperature;BMP_pressure;BME280_temperature;BME280_humidity;BME280_pressure;Samples;Min_cycle;Max_cycle;Signal;HPM_P1;HPM_P2
2022/03/12 00:00:38;;;;;;;;;2.00;1.00;;;;;9.71;82.12;101021.31;5015552;28;45458;-69
2022/03/12 00:03:04;;;;;;;;;2.75;1.50;;;;;9.66;82.45;101020.63;5014544;28;46710;-69
2022/03/12 00:05:35;;;;;;;;;1.75;1.75;;;;;9.61;82.30;101017.31;5014478;28;45598;-68
2022/03/12 00:08:05;;;;;;;;;1.50;1.50;;;;;9.55;82.41;101023.63;5010535;28;45627;-69
2022/03/12 00:10:32;;;;;;;;;1.50;1.50;;;;;9.49;82.86;101023.81;5013760;28;45437;-69
2022/03/12 00:12:59;;;;;;;;;2.00;2.00;;;;;9.47;82.97;101024.78;5011591;28;46743;-68
2022/03/12 00:15:25;;;;;;;;;4.00;2.00;;;;;9.44;82.79;101040.59;5010988;28;45454;-69
2022/03/12 00:17:51;;;;;;;;;3.00;1.00;;;;;9.40;83.20;101039.88;5010591;28;45543;-69
2022/03/12 00:20:18;;;;;;;;;1.00;1.00;;;;;9.37;83.38;101053.94;5013314;28;45384;-69
2022/03/12 00:22:50;;;;;;;;;3.75;2.00;;;;;9.36;83.41;101046.13;5011359;28;46188;-69
2022/03/12 00:25:22;;;;;;;;;2.50;2.50;;;;;9.33;82.71;101048.81;5014441;28;46002;-69
2022/03/12 00:27:50;;;;;;;;;2.25;1.00;;;;;9.34;83.42;101050.53;5010758;28;45414;-69
2022/03/12 00:30:19;;;;;;;;;1.00;1.00;;;;;9.34;83.04;101055.78;5010427;28;45330;-69
2022/03/12 00:32:47;;;;;;;;;3.75;2.00;;;;;9.35;83.33;101061.00;5013689;28;46855;-68
2022/03/12 00:35:14;;;;;;;;;4.25;1.75;;;;;9.39;83.73;101053.88;5009943;28;45806;-69
2022/03/12 00:37:39;;;;;;;;;1.00;1.00;;;;;9.43;83.64;101063.34;5012334;28;45468;-69
2022/03/12 00:40:05;;;;;;;;;3.00;2.00;;;;;9.49;83.32;101057.03;5012568;28;52239;-69
2022/03/12 00:42:31;;;;;;;;;5.75;3.00;;;;;9.55;83.45;101065.59;5012472;28;46484;-69
2022/03/12 00:44:57;;;;;;;;;1.00;0.50;;;;;9.64;83.41;101057.38;5014213;28;45854;-68
2022/03/12 00:47:23;;;;;;;;;1.25;1.25;;;;;9.70;83.20;101063.34;5010015;28;45437;-69
2022/03/12 00:49:50;;;;;;;;;2.00;2.00;;;;;9.75;82.69;101059.66;5012476;28;45487;-69
2022/03/12 00:52:16;;;;;;;;;2.00;2.00;;;;;9.80;82.70;101067.38;5013661;28;47084;-68
2022/03/12 00:54:42;;;;;;;;;2.00;2.00;;;;;9.84;82.63;101074.22;5010805;28;45666;-68
2022/03/12 00:57:10;;;;;;;;;4.00;4.00;;;;;9.89;83.08;101081.03;5009641;28;45588;-69
2022/03/12 00:59:37;;;;;;;;;2.25;1.50;;;;;9.93;82.55;101077.41;5013194;28;45447;-68
2022/03/12 01:02:03;;;;;;;;;2.00;1.25;;;;;9.99;82.57;101088.59;5013324;28;45494;-69
2022/03/12 01:04:28;;;;;;;;;3.00;2.00;;;;;10.04;82.54;101094.56;4998694;28;45526;-69
2022/03/12 01:06:54;;;;;;;;;1.75;1.00;;;;;10.06;82.27;101096.19;5015021;28;45221;-69
2022/03/12 01:09:19;;;;;;;;;1.25;1.25;;;;;10.08;81.91;101096.16;4995475;28;45387;-69
2022/03/12 01:11:45;;;;;;;;;4.00;2.00;;;;;10.09;82.13;101100.50;5012429;28;59594;-69
2022/03/12 01:14:10;;;;;;;;;2.25;2.25;;;;;10.10;82.26;101105.69;5017116;28;45528;-69
2022/03/12 01:16:35;;;;;;;;;3.00;2.00;;;;;10.11;82.00;101112.66;5016017;28;45503;-69
2022/03/12 01:19:01;;;;;;;;;1.25;1.25;;;;;10.12;82.01;101114.34;5014749;28;45278;-69
2022/03/12 01:21:26;;;;;;;;;1.50;1.50;;;;;10.14;81.83;101116.97;5015874;28;46512;-69
2022/03/12 01:23:52;;;;;;;;;3.25;2.00;;;;;10.14;81.62;101117.81;5023233;28;45500;-69
2022/03/12 01:26:19;;;;;;;;;2.00;2.00;;;;;10.12;81.67;101122.25;5020066;28;45428;-69
2022/03/12 01:28:45;;;;;;;;;4.00;2.00;;;;;10.11;81.18;101123.16;5017210;28;45549;-69
2022/03/12 01:31:10;;;;;;;;;3.00;1.75;;;;;10.08;81.12;101117.19;5017542;28;46295;-69
2022/03/12 01:33:36;;;;;;;;;4.00;2.75;;;;;10.01;81.20;101118.28;5013184;28;45588;-68
2022/03/12 01:36:01;;;;;;;;;1.75;1.50;;;;;9.87;81.09;101101.25;5012817;28;45980;-69
2022/03/12 01:38:39;;;;;;;;;2.50;2.00;;;;;9.75;81.18;101111.28;5012974;28;45372;-69
2022/03/12 01:41:06;;;;;;;;;2.25;2.25;;;;;9.64;81.66;101109.03;5012442;28;46201;-69
2022/03/12 01:43:32;;;;;;;;;2.50;2.50;;;;;9.49;81.83;101107.75;5017108;28;45440;-69
2022/03/12 01:46:01;;;;;;;;;2.00;1.50;;;;;9.46;82.04;101114.88;5017008;28;45364;-69
2022/03/12 01:48:28;;;;;;;;;2.75;2.75;;;;;9.38;82.36;101120.34;5013387;28;45446;-69
2022/03/12 01:50:54;;;;;;;;;1.50;1.50;;;;;9.34;82.83;101122.25;5015447;28;45538;-69
2022/03/12 01:53:19;;;;;;;;;3.00;3.00;;;;;9.32;82.60;101123.19;5012220;28;45452;-69
2022/03/12 01:55:45;;;;;;;;;1.50;1.00;;;;;9.28;82.46;101125.03;5016194;28;45526;-68
2022/03/12 01:58:10;;;;;;;;;1.25;1.25;;;;;9.23;82.95;101118.22;5017150;28;45798;-69
2022/03/12 02:00:43;;;;;;;;;5.33;2.00;;;;;9.17;82.65;101127.13;4995034;28;54988;-69
2022/03/12 02:03:09;;;;;;;;;1.75;1.75;;;;;9.11;82.99;101136.06;5015840;28;45398;-68
2022/03/12 02:05:34;;;;;;;;;2.75;2.75;;;;;9.15;83.32;101139.44;5012326;28;45415;-69
2022/03/12 02:08:01;;;;;;;;;1.75;1.75;;;;;9.22;83.80;101134.88;5016320;28;45432;-68
2022/03/12 02:10:27;;;;;;;;;2.00;2.00;;;;;9.29;83.87;101133.75;5014532;28;45403;-69
2022/03/12 02:12:53;;;;;;;;;2.00;2.00;;;;;9.29;83.67;101136.38;5013265;28;45364;-69
2022/03/12 02:15:20;;;;;;;;;2.25;2.25;;;;;9.39;83.30;101149.16;5012905;28;45324;-69
2022/03/12 02:17:45;;;;;;;;;2.25;2.25;;;;;9.44;83.30;101151.63;5012069;28;45569;-69
2022/03/12 02:20:13;;;;;;;;;6.00;3.00;;;;;9.48;83.03;101155.88;5015679;28;46605;-69
2022/03/12 02:22:39;;;;;;;;;2.75;2.75;;;;;9.51;83.28;101152.31;5014009;28;45485;-68
2022/03/12 02:25:04;;;;;;;;;3.25;2.00;;;;;9.52;82.97;101148.78;5014710;28;45438;-69
2022/03/12 02:27:31;;;;;;;;;2.25;2.25;;;;;9.50;82.69;101151.47;5014661;28;45500;-69
2022/03/12 02:29:59;;;;;;;;;2.00;2.00;;;;;9.50;82.81;101143.59;4994443;28;46285;-69
2022/03/12 02:32:25;;;;;;;;;2.00;2.00;;;;;9.49;82.60;101151.50;5011887;28;45430;-68
2022/03/12 02:34:51;;;;;;;;;2.00;1.75;;;;;9.47;82.77;101150.69;5012555;28;45381;-69
2022/03/12 02:37:30;;;;;;;;;3.50;3.00;;;;;9.43;82.67;101142.06;5015893;28;45474;-69
2022/03/12 02:40:16;;;;;;;;;4.25;2.50;;;;;9.34;82.65;101137.97;5013305;28;46118;-69
2022/03/12 02:42:41;;;;;;;;;2.25;2.00;;;;;9.27;83.30;101133.81;5012410;28;45821;-69
2022/03/12 02:45:08;;;;;;;;;3.00;3.00;;;;;9.22;83.01;101132.25;5011620;28;45500;-69
2022/03/12 02:47:35;;;;;;;;;2.25;2.00;;;;;9.17;83.03;101134.16;5013849;28;45605;-69
2022/03/12 02:50:07;;;;;;;;;2.00;2.00;;;;;9.10;83.49;101138.72;5014280;28;45658;-69
2022/03/12 02:52:39;;;;;;;;;2.00;2.00;;;;;9.06;83.74;101130.09;5013858;28;45346;-69
2022/03/12 02:55:04;;;;;;;;;3.50;3.50;;;;;9.01;83.42;101134.59;5014646;28;45429;-68
2022/03/12 02:57:30;;;;;;;;;3.00;1.50;;;;;8.98;83.74;101139.97;5015941;28;45619;-68
2022/03/12 03:00:00;;;;;;;;;4.25;4.25;;;;;8.96;83.42;101144.38;5011412;28;45980;-68
2022/03/12 03:02:38;;;;;;;;;5.50;4.50;;;;;8.95;83.77;101149.66;5011473;28;45494;-69
2022/03/12 03:05:06;;;;;;;;;7.00;5.00;;;;;8.95;83.85;101149.66;5011625;28;45483;-69
2022/03/12 03:07:31;;;;;;;;;3.00;3.00;;;;;8.98;84.07;101154.81;4997303;28;45507;-68
2022/03/12 03:09:57;;;;;;;;;4.75;2.00;;;;;8.99;83.59;101161.78;5016027;28;45456;-69
2022/03/12 03:12:23;;;;;;;;;2.50;1.00;;;;;8.94;83.48;101154.06;5011770;28;45452;-68
2022/03/12 03:14:49;;;;;;;;;6.25;2.75;;;;;8.88;83.62;101149.84;5011260;28;45359;-69
2022/03/12 03:17:15;;;;;;;;;5.00;3.00;;;;;8.83;83.53;101151.75;5011385;28;45524;-69
2022/03/12 03:19:41;;;;;;;;;2.00;2.00;;;;;8.78;83.71;101158.88;5013621;28;45447;-69
2022/03/12 03:22:07;;;;;;;;;7.00;3.00;;;;;8.73;83.91;101152.91;5013918;28;45497;-69
2022/03/12 03:24:33;;;;;;;;;1.00;1.00;;;;;8.68;84.09;101156.56;5013742;28;45261;-69
2022/03/12 03:27:00;;;;;;;;;2.00;2.00;;;;;8.63;83.90;101154.09;5015134;28;45383;-69
2022/03/12 03:29:30;;;;;;;;;3.00;1.00;;;;;8.57;84.30;101154.25;5010670;28;47005;-69
2022/03/12 03:31:57;;;;;;;;;2.00;2.00;;;;;8.53;84.41;101150.00;5011070;28;45914;-69
2022/03/12 03:34:24;;;;;;;;;1.00;1.00;;;;;8.48;84.05;101154.50;5015671;28;45344;-68
2022/03/12 03:36:50;;;;;;;;;3.50;2.00;;;;;8.46;83.96;101157.19;5012011;28;45349;-68
2022/03/12 03:39:16;;;;;;;;;6.00;3.00;;;;;8.43;84.18;101157.25;5010564;28;45310;-68
2022/03/12 03:41:42;;;;;;;;;5.00;2.00;;;;;8.42;84.38;101155.53;5010457;28;45851;-68
2022/03/12 03:44:08;;;;;;;;;2.75;2.00;;;;;8.40;84.30;101164.31;5010755;28;45510;-69
2022/03/12 03:46:34;;;;;;;;;2.25;2.25;;;;;8.38;84.62;101168.75;5013734;28;45434;-68
2022/03/12 03:48:59;;;;;;;;;5.00;2.25;;;;;8.36;84.80;101171.41;5014360;28;45590;-68
2022/03/12 03:51:25;;;;;;;;;1.25;1.25;;;;;8.33;84.69;101167.06;5012063;28;45484;-69
2022/03/12 03:53:51;;;;;;;;;2.25;1.00;;;;;8.32;84.59;101167.13;5010782;28;45571;-68
2022/03/12 03:56:17;;;;;;;;;2.50;2.50;;;;;8.29;84.54;101172.44;5015063;28;45500;-68
2022/03/12 03:58:44;;;;;;;;;3.00;2.00;;;;;8.28;84.88;101175.94;5012351;28;45282;-69
2022/03/12 04:01:12;;;;;;;;;1.75;1.75;;;;;8.27;84.46;101174.25;5013373;28;45551;-69
2022/03/12 04:03:49;;;;;;;;;2.50;2.25;;;;;8.23;84.89;101162.97;5015289;28;45372;-69
2022/03/12 04:06:16;;;;;;;;;2.00;2.00;;;;;8.24;84.55;101166.47;5009859;28;45585;-69
2022/03/12 04:08:42;;;;;;;;;2.75;1.00;;;;;8.20;84.92;101157.84;5010242;28;46447;-69
2022/03/12 04:11:14;;;;;;;;;2.00;2.00;;;;;8.18;84.62;101158.75;5010566;28;45349;-69
2022/03/12 04:13:39;;;;;;;;;4.75;3.75;;;;;8.15;84.59;101162.34;5012519;28;45252;-69
2022/03/12 04:16:05;;;;;;;;;2.00;2.00;;;;;8.15;85.09;101161.47;5013025;28;45217;-69
2022/03/12 04:18:31;;;;;;;;;3.50;2.00;;;;;8.13;84.99;101171.13;5013059;28;46206;-68
2022/03/12 04:20:56;;;;;;;;;2.00;2.00;;;;;8.10;84.89;101178.16;5011808;28;46619;-68
2022/03/12 04:23:23;;;;;;;;;3.00;1.50;;;;;8.08;84.85;101177.31;5010141;28;45390;-68
2022/03/12 04:25:51;;;;;;;;;6.50;2.25;;;;;8.08;84.85;101173.84;5014714;28;45419;-68
2022/03/12 04:28:18;;;;;;;;;2.50;2.25;;;;;8.06;84.83;101176.50;5014408;28;47149;-69
2022/03/12 04:30:44;;;;;;;;;4.25;2.25;;;;;8.04;85.15;101175.72;5010506;28;45965;-68
2022/03/12 04:33:11;;;;;;;;;2.00;2.00;;;;;8.02;84.83;101174.88;5009515;28;45596;-69
2022/03/12 04:35:38;;;;;;;;;1.50;1.25;;;;;7.99;85.20;101174.97;5009800;28;45519;-69
2022/03/12 04:38:03;;;;;;;;;1.25;1.25;;;;;7.97;85.18;101176.75;5009957;28;47100;-68
2022/03/12 04:40:29;;;;;;;;;1.00;1.00;;;;;7.93;84.83;101171.63;5013314;28;45550;-69
2022/03/12 04:42:55;;;;;;;;;5.25;1.25;;;;;7.90;84.77;101172.56;5011724;28;45328;-69
2022/03/12 04:45:23;;;;;;;;;5.00;3.00;;;;;7.84;84.95;101176.19;5009948;28;45413;-69
2022/03/12 04:47:50;;;;;;;;;1.25;1.00;;;;;7.83;84.97;101177.09;5009875;28;46484;-69
2022/03/12 04:50:18;;;;;;;;;3.00;2.00;;;;;7.82;85.03;101191.06;5008120;28;47799;-68
2022/03/12 04:52:45;;;;;;;;;1.50;1.50;;;;;7.80;84.67;101192.00;5007605;28;45706;-68
2022/03/12 04:55:13;;;;;;;;;2.25;2.25;;;;;7.76;84.63;101191.22;5013002;28;45571;-69
2022/03/12 04:57:39;;;;;;;;;5.75;3.00;;;;;7.75;85.22;101186.88;5014374;28;46192;-68
2022/03/12 05:00:06;;;;;;;;;2.00;1.75;;;;;7.73;85.14;101190.44;5009513;28;45700;-69
2022/03/12 05:02:32;;;;;;;;;2.00;2.00;;;;;7.70;84.93;101196.59;5009849;28;45521;-69
2022/03/12 05:04:58;;;;;;;;;2.00;2.00;;;;;7.69;84.87;101199.25;5009766;28;45365;-68
2022/03/12 05:07:24;;;;;;;;;2.00;2.00;;;;;7.67;84.88;101204.50;5013398;28;48709;-68
2022/03/12 05:09:50;;;;;;;;;2.00;2.00;;;;;7.65;85.21;101202.84;5010288;28;45500;-69
2022/03/12 05:12:17;;;;;;;;;2.75;1.50;;;;;7.63;85.09;101205.50;5009929;28;45553;-68
2022/03/12 05:14:44;;;;;;;;;2.00;2.00;;;;;7.60;85.14;101197.69;5009616;28;45337;-68
2022/03/12 05:17:09;;;;;;;;;1.00;1.00;;;;;7.57;85.57;101201.25;5009564;28;45392;-69
2022/03/12 05:19:36;;;;;;;;;1.75;1.00;;;;;7.58;85.86;101205.59;5011248;28;45447;-68
2022/03/12 05:22:05;;;;;;;;;2.00;2.00;;;;;7.56;86.12;101209.13;5013889;28;45300;-68
2022/03/12 05:24:30;;;;;;;;;2.50;1.00;;;;;7.55;85.81;101205.66;5010520;28;45706;-69
2022/03/12 05:26:58;;;;;;;;;1.75;1.00;;;;;7.55;85.61;101205.66;5013436;28;46123;-68
2022/03/12 05:29:23;;;;;;;;;1.75;1.75;;;;;7.56;86.18;101211.75;5009144;28;45593;-68
2022/03/12 05:31:52;;;;;;;;;2.00;1.00;;;;;7.56;86.34;101224.81;5009464;28;45483;-69
2022/03/12 05:34:23;;;;;;;;;2.00;2.00;;;;;7.57;86.01;101223.94;5014304;28;45436;-68
2022/03/12 05:36:49;;;;;;;;;4.00;2.00;;;;;7.58;85.96;101220.44;5010424;28;46319;-69
2022/03/12 05:39:16;;;;;;;;;6.00;1.75;;;;;7.55;85.79;101225.72;5010775;28;45509;-68
2022/03/12 05:41:44;;;;;;;;;2.00;1.25;;;;;7.54;86.28;101217.00;4995630;28;45548;-68
2022/03/12 05:44:13;;;;;;;;;3.00;2.00;;;;;7.54;86.23;101227.47;5010270;28;45614;-68
2022/03/12 05:46:40;;;;;;;;;1.75;1.50;;;;;7.50;86.19;101220.59;5014222;28;47086;-69
2022/03/12 05:49:06;;;;;;;;;5.75;3.50;;;;;7.55;86.34;101229.19;5015509;28;45412;-69
2022/03/12 05:51:32;;;;;;;;;1.25;1.00;;;;;7.58;86.23;101231.75;5015594;28;45532;-69
2022/03/12 05:53:58;;;;;;;;;2.00;2.00;;;;;7.60;86.16;101234.31;5012591;28;45433;-69
2022/03/12 05:56:23;;;;;;;;;1.25;1.00;;;;;7.65;86.34;101242.06;4982958;28;48138;-69
2022/03/12 05:58:48;;;;;;;;;2.50;2.25;;;;;7.65;86.11;101239.44;5013203;28;45419;-68
2022/03/12 06:01:14;;;;;;;;;1.00;1.00;;;;;7.71;86.49;101240.16;5015483;28;45396;-69
2022/03/12 06:03:39;;;;;;;;;4.50;2.50;;;;;7.74;85.94;101247.97;5013227;28;45474;-68
2022/03/12 06:06:05;;;;;;;;;3.00;3.00;;;;;7.76;85.98;101250.53;5012170;28;46142;-69
2022/03/12 06:08:33;;;;;;;;;1.00;1.00;;;;;7.77;85.79;101241.78;4997824;28;45776;-69
2022/03/12 06:10:58;;;;;;;;;1.50;1.50;;;;;7.79;85.73;101247.84;5012297;28;45400;-68
2022/03/12 06:13:27;;;;;;;;;3.00;3.00;;;;;7.79;85.80;101258.31;5016948;28;45301;-69
2022/03/12 06:15:59;;;;;;;;;1.00;1.00;;;;;7.82;85.97;101248.63;5012873;28;46365;-69
2022/03/12 06:18:26;;;;;;;;;3.50;2.50;;;;;7.83;85.70;101252.97;5012705;28;45934;-69
2022/03/12 06:20:51;;;;;;;;;3.00;1.75;;;;;7.87;85.95;101251.13;5013579;28;45528;-69
2022/03/12 06:23:17;;;;;;;;;2.75;2.75;;;;;7.90;85.82;101252.84;5017438;28;45502;-69
2022/03/12 06:25:43;;;;;;;;;2.00;2.00;;;;;7.91;85.79;101263.25;5022742;28;47056;-69
2022/03/12 06:28:08;;;;;;;;;4.50;3.25;;;;;7.90;85.95;101256.31;5016332;28;45327;-69
2022/03/12 06:30:34;;;;;;;;;7.25;3.50;;;;;7.96;85.96;101258.78;5012146;28;45254;-69
2022/03/12 06:32:59;;;;;;;;;5.00;2.75;;;;;7.96;85.46;101260.53;5012213;28;45458;-69
2022/03/12 06:35:26;;;;;;;;;3.00;2.75;;;;;7.99;85.58;101274.41;5012195;28;46107;-69
2022/03/12 06:37:52;;;;;;;;;4.25;4.00;;;;;8.03;85.22;101270.81;5011924;28;45673;-69
2022/03/12 06:40:18;;;;;;;;;4.00;4.00;;;;;8.03;85.64;101283.91;5016068;28;45481;-69
2022/03/12 06:42:46;;;;;;;;;3.00;3.00;;;;;8.08;85.27;101273.31;5012929;28;45480;-69
2022/03/12 06:45:16;;;;;;;;;4.00;4.00;;;;;8.10;85.11;101285.50;5011268;28;46915;-69
2022/03/12 06:47:43;;;;;;;;;4.50;3.00;;;;;8.09;85.10;101289.00;5011445;28;45422;-69
2022/03/12 06:50:11;;;;;;;;;4.00;3.00;;;;;8.16;85.00;101301.94;5015579;28;45452;-69
2022/03/12 06:52:37;;;;;;;;;5.75;4.00;;;;;8.18;85.20;101308.84;5014400;28;45726;-69
2022/03/12 06:55:03;;;;;;;;;4.75;2.00;;;;;8.21;84.90;101310.56;5013636;28;45628;-69
2022/03/12 06:57:29;;;;;;;;;3.00;3.00;;;;;8.22;84.81;101310.50;5014599;28;45797;-69
2022/03/12 06:59:54;;;;;;;;;3.00;3.00;;;;;8.24;84.82;101308.69;5010917;28;45546;-69
2022/03/12 07:02:19;;;;;;;;;8.67;3.00;;;;;8.29;84.97;101316.44;5014037;28;62517;-69
2022/03/12 07:04:45;;;;;;;;;3.00;3.00;;;;;8.33;84.60;101320.72;4994792;28;48434;-69
2022/03/12 07:07:10;;;;;;;;;3.00;2.25;;;;;8.32;84.76;101324.25;5014556;28;45547;-69
2022/03/12 07:09:36;;;;;;;;;4.50;4.50;;;;;8.39;84.75;101324.97;5012284;28;45540;-69
2022/03/12 07:12:03;;;;;;;;;7.75;3.00;;;;;8.47;84.63;101334.38;5011221;28;45510;-69
2022/03/12 07:14:30;;;;;;;;;5.25;2.00;;;;;8.54;84.63;101332.47;5015012;28;46296;-69
2022/03/12 07:16:55;;;;;;;;;2.50;1.75;;;;;8.62;84.57;101343.63;5011411;28;45452;-69
2022/03/12 07:19:22;;;;;;;;;2.00;2.00;;;;;8.67;84.12;101336.50;5016053;28;47395;-69
2022/03/12 07:21:49;;;;;;;;;3.50;2.00;;;;;8.75;84.31;101338.91;5016327;28;45337;-69
2022/03/12 07:24:15;;;;;;;;;3.00;3.00;;;;;8.84;83.90;101326.44;5013967;28;46225;-69
2022/03/12 07:26:41;;;;;;;;;3.50;3.00;;;;;8.94;83.71;101323.59;5005732;28;45900;-69
2022/03/12 07:29:06;;;;;;;;;3.00;3.00;;;;;9.04;83.24;101330.31;5014834;28;45372;-69
2022/03/12 07:31:32;;;;;;;;;3.00;2.00;;;;;9.15;83.54;101329.09;5014336;28;45296;-69
2022/03/12 07:33:57;;;;;;;;;3.00;3.00;;;;;9.32;83.30;101328.63;5013192;28;45837;-69
2022/03/12 07:36:22;;;;;;;;;3.00;3.00;;;;;9.56;82.89;101341.97;5011387;28;45411;-68
2022/03/12 07:38:48;;;;;;;;;4.75;3.00;;;;;9.89;82.94;101335.69;5011378;28;45512;-69
2022/03/12 07:41:13;;;;;;;;;5.50;4.25;;;;;10.32;82.36;101344.03;5010973;28;45803;-69
2022/03/12 07:43:39;;;;;;;;;3.50;3.50;;;;;10.79;81.37;101338.97;5011721;28;45871;-68
2022/03/12 07:46:05;;;;;;;;;7.75;3.00;;;;;11.32;80.43;101326.53;5012970;28;45324;-70
2022/03/12 07:48:30;;;;;;;;;3.50;3.50;;;;;11.75;78.96;101331.06;5012858;28;45571;-69
2022/03/12 07:50:56;;;;;;;;;4.75;2.50;;;;;11.92;77.48;101325.19;5011232;28;45493;-68
2022/03/12 07:53:23;;;;;;;;;3.00;3.00;;;;;11.88;76.95;101323.56;5013045;28;45350;-68
2022/03/12 07:55:48;;;;;;;;;2.00;2.00;;;;;11.75;76.54;101330.22;5014417;28;46301;-69
2022/03/12 07:58:15;;;;;;;;;4.00;3.00;;;;;11.62;76.27;101345.59;5010553;28;45507;-68
2022/03/12 08:00:41;;;;;;;;;4.00;3.00;;;;;11.50;76.24;101349.56;5011323;28;46417;-68
2022/03/12 08:03:07;;;;;;;;;4.75;3.00;;;;;11.33;76.51;101353.72;5010541;28;46221;-69
2022/03/12 08:05:32;;;;;;;;;4.00;4.00;;;;;11.20;76.75;101358.56;5010466;28;45466;-69
2022/03/12 08:07:58;;;;;;;;;2.25;2.25;;;;;11.07;76.39;101378.34;5013149;28;45404;-69
2022/03/12 08:10:24;;;;;;;;;3.50;2.00;;;;;10.94;77.08;101375.25;5015364;28;45327;-68
2022/03/12 08:12:50;;;;;;;;;3.25;2.25;;;;;10.87;77.09;101384.28;5010760;28;46976;-68
2022/03/12 08:15:16;;;;;;;;;3.50;2.25;;;;;10.82;77.51;101386.19;5010100;28;45887;-69
2022/03/12 08:17:43;;;;;;;;;1.50;1.50;;;;;10.73;77.20;101397.00;5011729;28;45456;-68
2022/03/12 08:20:09;;;;;;;;;4.50;3.50;;;;;10.66;77.62;101405.09;5010798;28;45456;-68
2022/03/12 08:22:38;;;;;;;;;3.75;2.00;;;;;10.64;77.78;101396.38;5011310;28;46285;-69
2022/03/12 08:25:04;;;;;;;;;3.75;2.75;;;;;10.63;77.50;101402.56;5012860;28;45448;-68
2022/03/12 08:27:30;;;;;;;;;6.50;6.25;;;;;10.62;77.47;101398.22;5010466;28;45291;-69
2022/03/12 08:29:55;;;;;;;;;3.00;3.00;;;;;10.64;77.84;101406.03;5009684;28;45353;-69
2022/03/12 08:32:20;;;;;;;;;3.00;2.25;;;;;10.61;77.46;101395.66;5009971;28;45383;-69
2022/03/12 08:34:46;;;;;;;;;4.50;2.50;;;;;10.57;77.96;101413.28;5010552;28;45432;-69
2022/03/12 08:37:11;;;;;;;;;4.25;3.75;;;;;10.61;78.16;101406.16;5013514;28;45619;-69
2022/03/12 08:39:37;;;;;;;;;6.50;4.25;;;;;10.70;78.27;101409.34;5010784;28;45548;-69
2022/03/12 08:42:03;;;;;;;;;2.00;2.00;;;;;10.77;77.91;101414.41;5009399;28;46251;-69
2022/03/12 08:44:28;;;;;;;;;4.50;3.50;;;;;10.80;77.92;101412.53;5009440;28;47633;-69
2022/03/12 08:46:53;;;;;;;;;6.50;3.00;;;;;10.82;77.43;101412.50;5009924;28;45278;-69
2022/03/12 08:49:19;;;;;;;;;4.50;4.00;;;;;10.85;77.60;101405.34;5014117;28;45555;-68
2022/03/12 08:51:44;;;;;;;;;3.75;2.50;;;;;10.87;77.44;101407.94;5009769;28;46016;-68
2022/03/12 08:54:10;;;;;;;;;2.50;2.50;;;;;10.92;78.05;101404.25;5013340;28;45565;-68
2022/03/12 08:56:36;;;;;;;;;2.00;2.00;;;;;10.96;77.06;101411.13;5013564;28;45325;-68
2022/03/12 08:59:03;;;;;;;;;5.00;3.00;;;;;10.96;77.59;101410.25;5009609;28;45460;-68
2022/03/12 09:01:28;;;;;;;;;4.00;3.00;;;;;10.96;77.63;101405.88;5013690;28;46228;-68
2022/03/12 09:03:54;;;;;;;;;2.00;2.00;;;;;10.95;77.41;101400.63;5014566;28;45349;-68
2022/03/12 09:06:19;;;;;;;;;4.75;1.75;;;;;10.98;77.37;101401.41;5013726;28;45553;-68
2022/03/12 09:08:46;;;;;;;;;6.25;4.00;;;;;11.03;77.85;101408.28;5003594;28;45585;-68
2022/03/12 09:11:16;;;;;;;;;3.50;2.00;;;;;11.08;77.96;101401.09;5000453;28;46078;-68
2022/03/12 09:13:41;;;;;;;;;3.00;1.00;;;;;11.13;77.12;101407.06;5011390;28;45535;-67
2022/03/12 09:16:07;;;;;;;;;3.00;3.00;;;;;11.08;77.16;101396.69;5010153;28;45695;-67
2022/03/12 09:18:32;;;;;;;;;3.00;2.25;;;;;11.09;77.40;101398.41;5010473;28;45510;-67
2022/03/12 09:20:57;;;;;;;;;78.25;61.00;;;;;11.09;77.40;101406.28;5012745;28;47092;-68
2022/03/12 09:23:23;;;;;;;;;39.75;36.50;;;;;11.10;77.97;101402.75;5016335;28;45560;-68
2022/03/12 09:25:50;;;;;;;;;4.00;3.00;;;;;11.20;78.31;101406.78;5013433;28;45487;-68
2022/03/12 09:28:18;;;;;;;;;4.50;3.75;;;;;11.27;78.31;101404.78;5015117;28;45517;-68
2022/03/12 09:30:47;;;;;;;;;3.00;3.00;;;;;11.36;78.44;101395.72;5012931;28;47049;-68
2022/03/12 09:33:12;;;;;;;;;2.75;2.75;;;;;11.44;78.25;101389.28;5012269;28;45294;-69
2022/03/12 09:35:37;;;;;;;;;3.00;3.00;;;;;11.52;78.17;101390.75;5012750;28;45547;-68
2022/03/12 09:38:03;;;;;;;;;3.00;2.75;;;;;11.59;78.27;101393.13;5011592;28;45514;-68
2022/03/12 09:40:30;;;;;;;;;5.25;4.00;;;;;11.67;77.63;101398.09;5016630;28;46093;-68
2022/03/12 09:42:55;;;;;;;;;4.00;3.50;;;;;11.70;77.36;101384.84;5009054;28;45786;-69
2022/03/12 09:45:22;;;;;;;;;7.00;4.00;;;;;11.72;77.14;101383.84;5016661;28;45523;-69
2022/03/12 09:47:49;;;;;;;;;9.00;4.00;;;;;11.80;77.70;101380.94;5012692;28;45408;-68
2022/03/12 09:50:16;;;;;;;;;4.00;2.50;;;;;11.96;77.66;101384.72;5013709;28;47177;-67
2022/03/12 09:52:41;;;;;;;;;3.00;3.00;;;;;12.14;77.98;101393.69;5012148;28;45524;-70
2022/03/12 09:55:07;;;;;;;;;5.00;5.00;;;;;12.28;77.16;101382.63;4998832;28;45439;-71
2022/03/12 09:57:34;;;;;;;;;6.25;3.25;;;;;12.36;76.15;101377.03;5013331;28;45430;-70
2022/03/12 09:59:59;;;;;;;;;7.25;4.75;;;;;12.50;76.76;101379.97;5009957;28;46407;-70
2022/03/12 10:02:25;;;;;;;;;4.25;4.25;;;;;12.66;75.76;101372.28;5012422;28;45550;-68
2022/03/12 10:04:50;;;;;;;;;4.75;3.25;;;;;12.75;76.07;101372.78;5013270;28;45651;-70
2022/03/12 10:07:16;;;;;;;;;54.50;43.50;;;;;12.90;75.55;101376.56;5016312;28;45290;-70
2022/03/12 10:09:41;;;;;;;;;8.50;5.75;;;;;13.07;75.31;101375.81;5012835;28;45361;-70
2022/03/12 10:12:07;;;;;;;;;3.75;3.75;;;;;13.23;74.58;101371.63;5012308;28;45415;-69
2022/03/12 10:14:33;;;;;;;;;3.75;3.00;;;;;13.31;74.24;101372.16;5012698;28;45691;-69
2022/03/12 10:17:02;;;;;;;;;4.00;4.00;;;;;13.35;73.73;101377.28;5012407;28;45400;-68
2022/03/12 10:19:30;;;;;;;;;4.00;4.00;;;;;13.35;73.68;101382.56;5015779;28;46321;-68
2022/03/12 10:21:57;;;;;;;;;4.75;4.25;;;;;13.37;73.55;101384.22;5013478;28;45281;-69
2022/03/12 10:24:23;;;;;;;;;3.75;3.75;;;;;13.40;73.25;101384.06;5012781;28;45491;-72
2022/03/12 10:26:49;;;;;;;;;5.00;4.00;;;;;13.43;72.82;101375.19;5015347;28;46832;-72
2022/03/12 10:29:14;;;;;;;;;4.75;3.50;;;;;13.45;73.72;101373.31;5011575;28;58340;-70
2022/03/12 10:31:40;;;;;;;;;4.33;4.00;;;;;13.48;72.88;101378.47;5013353;28;60695;-70
2022/03/12 10:34:25;;;;;;;;;3.50;3.00;;;;;13.51;73.03;101381.81;5016880;28;45523;-69
2022/03/12 10:36:54;;;;;;;;;6.25;4.50;;;;;13.52;72.61;101380.91;5013082;28;45359;-70
2022/03/12 10:39:40;;;;;;;;;8.25;3.75;;;;;13.51;72.86;101373.88;5011678;28;46489;-70
2022/03/12 10:42:07;;;;;;;;;2.50;2.50;;;;;13.48;72.20;101381.97;5011709;28;45865;-70
2022/03/12 10:44:37;;;;;;;;;4.00;3.00;;;;;13.44;72.52;101368.97;5012074;28;45563;-70
2022/03/12 10:47:24;;;;;;;;;4.50;4.00;;;;;13.42;71.89;101368.19;5011926;28;45495;-71
2022/03/12 10:49:58;;;;;;;;;3.00;3.00;;;;;13.39;72.50;101363.88;5012807;28;46513;-71
2022/03/12 10:52:28;;;;;;;;;4.25;4.25;;;;;13.44;72.22;101353.13;5000139;28;45732;-70
2022/03/12 10:54:54;;;;;;;;;5.75;5.00;;;;;13.51;72.85;101357.19;5012088;28;45305;-70
2022/03/12 10:57:19;;;;;;;;;7.50;4.25;;;;;13.64;72.90;101366.28;5016223;28;45559;-69
2022/03/12 10:59:45;;;;;;;;;4.00;3.25;;;;;13.71;72.22;101367.69;5016214;28;45407;-69
2022/03/12 11:02:11;;;;;;;;;6.00;4.00;;;;;13.69;71.93;101363.44;5021586;28;45491;-69
2022/03/12 11:04:36;;;;;;;;;7.50;3.75;;;;;13.63;71.44;101363.72;5015965;28;45401;-70
2022/03/12 11:07:26;;;;;;;;;6.25;4.50;;;;;13.60;72.05;101362.06;5015468;28;45344;-70
2022/03/12 11:09:53;;;;;;;;;5.50;5.00;;;;;13.55;71.70;101364.91;5011640;28;46377;-70
2022/03/12 11:12:35;;;;;;;;;4.00;4.00;;;;;13.48;71.38;101359.97;5018457;28;45438;-69
2022/03/12 11:15:15;;;;;;;;;4.50;3.25;;;;;13.40;71.75;101360.31;5017302;28;45375;-70
2022/03/12 11:17:49;;;;;;;;;3.00;3.00;;;;;13.29;71.19;101346.75;5017265;28;45472;-70
2022/03/12 11:20:23;;;;;;;;;6.50;3.00;;;;;13.21;71.78;101339.16;4998766;28;47729;-70
2022/03/12 11:23:05;;;;;;;;;4.75;3.50;;;;;13.20;71.47;101342.69;4998998;28;45903;-70
2022/03/12 11:25:30;;;;;;;;;2.25;2.25;;;;;13.18;71.79;101330.50;5011932;28;45483;-70
2022/03/12 11:28:00;;;;;;;;;7.25;4.25;;;;;13.20;72.20;101337.41;5013002;28;45488;-70